KINL/INL METAR and TAF weather

Enter ICAO airport designator
Station Type Date Time Source
KINL METAR 2022/12/05 14:54 UTC NOAA

KINL 051454Z AUTO 30008KT 10SM FEW018 M09/M13 A2971 RMK AO2 SLP084 T10941133 51030


Station Type Date Time Source
KINL Decoded METAR 2022/12/05 14:54 UTC NOAA

FALLS INTERNATIONAL AIRPORT , MN, United States (KINL) 48-34N 093-24W 360M
Dec 05, 2022 - 09:54 AM EST / 2022.12.05 1454 UTC
Wind: from the WNW (300 degrees) at 9 MPH (8 KT):0
Visibility: 10 mile(s):0
Sky conditions: mostly clear
Temperature: 15.1 F (-9.4 C)
Windchill: 3 F (-16 C):1
Dew Point: 8.1 F (-13.3 C)
Relative Humidity: 73%
Pressure (altimeter): 29.71 in. Hg (1006 hPa)
Pressure tendency: 0.09 inches (3.0 hPa) higher than three hours ago
ob: KINL 051454Z AUTO 30008KT 10SM FEW018 M09/M13 A2971 RMK AO2 SLP084 T10941133 51030
cycle: 15

Station Type Date Time Source
KINL TAF 2022/12/05 13:03 UTC NOAA

TAF
AMD KINL 051300Z 0513/0612 28007KT P6SM VCSH BKN035
TEMPO 0513/0514 6SM -SN BKN018
FM051600 31009G17KT P6SM BKN060
FM060000 30004KT P6SM SCT150

Example: see airport list